Archimede — IXZR — position and weather

sailwx.info

Track history (hours):
 
Tides and Currents Weather Stations Pressure Air Temp Water Temp Dewpoint Dewpoint Depression Visibility Wind Speed Wind Dir Waves Ship Positions

Archimede

Last reported at 2014-Aug-19 14:32 UTC. Time now 2014-Aug-20 12:47 UTC.
Position N 38°11' E 015°35'.

; draft 3.1 m.

Type: Ship. MMSI: 247054700.

Date/timePositionNaut miles runAvg speedWind from/ knotsBaromVisibWave heightAir tempDewpointWater temp
2014-Aug-19 14:32N 38°11' E 015°35'3 0.1
2014-Aug-18 18:16N 38°13' E 015°38'1 0.5
2014-Aug-18 16:21N 38°13' E 015°37'1 1.3
2014-Aug-18 15:34N 38°13' E 015°38'6 3.8
2014-Aug-18 14:06N 38°09' E 015°34'6 1.2
2014-Aug-18 09:32N 38°13' E 015°38'0 0.0
2014-Aug-17 17:09N 38°13' E 015°38'2 3.9
2014-Aug-17 16:33N 38°11' E 015°37'4 2.6
2014-Aug-17 15:12N 38°09' E 015°34'4 5.1
2014-Aug-17 14:25N 38°13' E 015°35'3 1.5
2014-Aug-17 12:32N 38°10' E 015°34'4 4.5
2014-Aug-17 11:33N 38°13' E 015°38'0 0.0
2014-Aug-17 10:29N 38°13' E 015°38'0 0.0
2014-Aug-17 09:30N 38°13' E 015°38'1 0.6
2014-Aug-17 07:33N 38°13' E 015°37'0 0.1
2014-Aug-17 05:22N 38°13' E 015°37'4 2.0
2014-Aug-17 03:23N 38°09' E 015°34'5 4.9
2014-Aug-17 02:25N 38°13' E 015°38'6 2.9
2014-Aug-17 00:32N 38°09' E 015°33'4 3.7
2014-Aug-16 23:33N 38°11' E 015°37'4 3.0
2014-Aug-16 22:21N 38°09' E 015°33'5 6.8
2014-Aug-16 21:33N 38°13' E 015°38'5 3.9
2014-Aug-16 20:12N 38°09' E 015°34'6 8.5
2014-Aug-16 19:33N 38°13' E 015°38'0 0.0
2014-Aug-16 18:29N 38°13' E 015°38'2 1.5
2014-Aug-16 17:22N 38°13' E 015°36'4 1.8
2014-Aug-16 15:04N 38°09' E 015°34'5 5.8
2014-Aug-16 14:15N 38°13' E 015°37'1 1.8
2014-Aug-16 13:33N 38°12' E 015°37'4 3.5
2014-Aug-16 12:23N 38°09' E 015°34'5 5.6
2014-Aug-16 11:29N 38°14' E 015°37'  
2014-Aug-12 11:30N 38°13' E 015°38'0 0.0
2014-Aug-12 10:24N 38°13' E 015°38'0 0.0
2014-Aug-11 14:15N 38°13' E 015°38'0 0.0
2014-Aug-11 11:33N 38°13' E 015°38'  
Track history (hours):
 
Tides and Currents Weather Stations Pressure Air Temp Water Temp Dewpoint Dewpoint Depression Visibility Wind Speed Wind Dir Waves Ship Positions

Archimede

Last reported at 2014-Aug-19 14:32 UTC. Time now 2014-Aug-20 12:47 UTC.
Position N 38°11' E 015°35'.

; draft 3.1 m.

Type: Ship. MMSI: 247054700.

Date/timePositionNaut miles runAvg speedWind from/ knotsBaromVisibWave heightAir tempDewpointWater temp
2014-Aug-19 14:32N 38°11' E 015°35'3 0.1
2014-Aug-18 18:16N 38°13' E 015°38'1 0.5
2014-Aug-18 16:21N 38°13' E 015°37'1 1.3
2014-Aug-18 15:34N 38°13' E 015°38'6 3.8
2014-Aug-18 14:06N 38°09' E 015°34'6 1.2
2014-Aug-18 09:32N 38°13' E 015°38'0 0.0
2014-Aug-17 17:09N 38°13' E 015°38'2 3.9
2014-Aug-17 16:33N 38°11' E 015°37'4 2.6
2014-Aug-17 15:12N 38°09' E 015°34'4 5.1
2014-Aug-17 14:25N 38°13' E 015°35'3 1.5
2014-Aug-17 12:32N 38°10' E 015°34'4 4.5
2014-Aug-17 11:33N 38°13' E 015°38'0 0.0
2014-Aug-17 10:29N 38°13' E 015°38'0 0.0
2014-Aug-17 09:30N 38°13' E 015°38'1 0.6
2014-Aug-17 07:33N 38°13' E 015°37'0 0.1
2014-Aug-17 05:22N 38°13' E 015°37'4 2.0
2014-Aug-17 03:23N 38°09' E 015°34'5 4.9
2014-Aug-17 02:25N 38°13' E 015°38'6 2.9
2014-Aug-17 00:32N 38°09' E 015°33'4 3.7
2014-Aug-16 23:33N 38°11' E 015°37'4 3.0
2014-Aug-16 22:21N 38°09' E 015°33'5 6.8
2014-Aug-16 21:33N 38°13' E 015°38'5 3.9
2014-Aug-16 20:12N 38°09' E 015°34'6 8.5
2014-Aug-16 19:33N 38°13' E 015°38'0 0.0
2014-Aug-16 18:29N 38°13' E 015°38'2 1.5
2014-Aug-16 17:22N 38°13' E 015°36'4 1.8
2014-Aug-16 15:04N 38°09' E 015°34'5 5.8
2014-Aug-16 14:15N 38°13' E 015°37'1 1.8
2014-Aug-16 13:33N 38°12' E 015°37'4 3.5
2014-Aug-16 12:23N 38°09' E 015°34'5 5.6
2014-Aug-16 11:29N 38°14' E 015°37'  
2014-Aug-12 11:30N 38°13' E 015°38'0 0.0
2014-Aug-12 10:24N 38°13' E 015°38'0 0.0
2014-Aug-11 14:15N 38°13' E 015°38'0 0.0
2014-Aug-11 11:33N 38°13' E 015°38'  

Dump ship's entire track history